Terminal Aerodrome Forecast
Issued by NWS Goodland, KS

Home | Current Version | Previous Version | Text Only | Print | Product List | Glossary On
Versions: 1 2 3 4 5 6 7 8 9 10 11 12 13 14 15 16 17 18 19 20 21 22 23 24 25 26 27 28
000
FTUS43 KGLD 250235 AAC
TAFGLD
TAF AMD
KGLD 250235Z 2503/2524 34010KT 6SM -TSRA BKN060CB
     FM250500 VRB05KT 3SM -SHRA BR BKN010
     FM250900 34010KT 6SM -SHRA BR BKN015
     FM251400 31010G16KT P6SM BKN035=

USA.gov is the U.S. government's official web portal to all federal, state and local government web resources and services.